Time;durP1;ratioP1;P1;durP2;ratioP2;P2;SDS_P1;SDS_P2;PMS_P1;PMS_P2;Temp;Humidity;BMP_temperature;BMP_pressure;BME280_temperature;BME280_humidity;BME280_pressure;Samples;Min_cycle;Max_cycle;Signal;HPM_P1;HPM_P2
2022/09/13 03:56:16;;;;;;;;;;;23.40;97.40;;;;;;5629363;22;19925;-78
2022/09/13 03:58:43;;;;;;;;;;;23.50;97.30;;;;;;5014169;28;20295;-76
2022/09/13 04:01:10;;;;;;;;;;;23.50;97.30;;;;;;5016357;28;19991;-76
2022/09/13 04:03:37;;;;;;;;;;;23.50;97.30;;;;;;5018136;28;19925;-79
2022/09/13 04:06:03;;;;;;;;;;;23.50;97.40;;;;;;5019040;28;19926;-82
2022/09/13 04:08:30;;;;;;;;;;;23.50;97.40;;;;;;5018667;28;19929;-81
2022/09/13 04:10:57;;;;;;;;;;;23.50;97.40;;;;;;5018136;28;19925;-82
2022/09/13 04:13:25;;;;;;;;;;;23.50;97.40;;;;;;5018134;28;19925;-80
2022/09/13 04:15:53;;;;;;;;;;;23.50;97.50;;;;;;5017915;28;19932;-77
2022/09/13 04:18:19;;;;;;;;;;;23.50;97.50;;;;;;5017872;28;19925;-76
2022/09/13 04:20:53;;;;;;;;;;;23.50;97.50;;;;;;5018018;28;19925;-77
2022/09/13 04:23:20;;;;;;;;;;;23.40;97.50;;;;;;5017392;28;20291;-77
2022/09/13 04:25:46;;;;;;;;;;;23.40;97.60;;;;;;5017312;28;20432;-77
2022/09/13 04:28:13;;;;;;;;;;;23.50;97.60;;;;;;5017827;28;19932;-77
2022/09/13 04:30:43;;;;;;;;;;;23.40;97.60;;;;;;5017196;28;19925;-77
2022/09/13 04:33:10;;;;;;;;;;;23.50;97.70;;;;;;5017296;28;20299;-76
2022/09/13 04:35:38;;;;;;;;;;;23.40;97.70;;;;;;5017149;28;20024;-76
2022/09/13 04:38:04;;;;;;;;;;;23.50;97.70;;;;;;5017522;28;19925;-76
2022/09/13 04:40:31;;;;;;;;;;;23.40;97.70;;;;;;5018043;28;19925;-81
2022/09/13 04:42:58;;;;;;;;;;;23.40;97.70;;;;;;5019500;28;19932;-82
2022/09/13 04:45:24;;;;;;;;;;;23.50;97.80;;;;;;5023046;28;20025;-81
2022/09/13 04:47:54;;;;;;;;;;;23.50;97.80;;;;;;5019160;28;19989;-82
2022/09/13 04:50:20;;;;;;;;;;;23.40;97.80;;;;;;5022594;28;19926;-82
2022/09/13 04:52:47;;;;;;;;;;;23.40;97.80;;;;;;5023351;28;20448;-83
2022/09/13 04:55:14;;;;;;;;;;;23.40;97.80;;;;;;5018319;28;19931;-77
2022/09/13 04:57:40;;;;;;;;;;;23.40;97.90;;;;;;5040784;23;20306;-78
2022/09/13 05:00:08;;;;;;;;;;;23.40;97.90;;;;;;5017694;28;20298;-78
2022/09/13 05:02:34;;;;;;;;;;;23.40;97.90;;;;;;5020262;28;20001;-79
2022/09/13 05:05:02;;;;;;;;;;;23.40;98.00;;;;;;5017779;28;20024;-78
2022/09/13 05:07:29;;;;;;;;;;;23.40;98.00;;;;;;5017570;28;20332;-78
2022/09/13 05:09:56;;;;;;;;;;;23.40;98.00;;;;;;5017104;28;19925;-78
2022/09/13 05:12:22;;;;;;;;;;;23.40;98.00;;;;;;5016982;28;20380;-78
2022/09/13 05:14:49;;;;;;;;;;;23.40;98.10;;;;;;5017139;28;19925;-77
2022/09/13 05:17:16;;;;;;;;;;;23.40;98.10;;;;;;5018335;28;19961;-77
2022/09/13 05:19:42;;;;;;;;;;;23.40;98.10;;;;;;5017922;28;20001;-78
2022/09/13 05:22:10;;;;;;;;;;;23.40;98.10;;;;;;5017974;28;20019;-79
2022/09/13 05:24:37;;;;;;;;;;;23.40;97.80;;;;;;5019214;28;19932;-78
2022/09/13 05:27:04;;;;;;;;;;;23.40;97.70;;;;;;5018725;28;19932;-78
2022/09/13 05:29:30;;;;;;;;;;;23.30;97.50;;;;;;5018300;28;20312;-78
2022/09/13 05:31:57;;;;;;;;;;;23.30;97.30;;;;;;5018657;28;20447;-78
2022/09/13 05:34:24;;;;;;;;;;;23.30;96.90;;;;;;5022059;28;19925;-79
2022/09/13 05:36:50;;;;;;;;;;;23.30;96.90;;;;;;5022167;28;20419;-79
2022/09/13 05:39:20;;;;;;;;;;;23.30;96.90;;;;;;5022640;28;20386;-79
2022/09/13 05:41:47;;;;;;;;;;;23.30;96.90;;;;;;5021244;28;19925;-79
2022/09/13 05:44:14;;;;;;;;;;;23.30;96.70;;;;;;5023033;28;19925;-79
2022/09/13 05:46:41;;;;;;;;;;;23.30;96.50;;;;;;5021874;28;20016;-79
2022/09/13 05:49:08;;;;;;;;;;;23.30;96.40;;;;;;5022424;28;19968;-78
2022/09/13 05:51:35;;;;;;;;;;;23.30;96.50;;;;;;5017776;28;19926;-79
2022/09/13 05:54:01;;;;;;;;;;;23.30;96.00;;;;;;5018701;28;19925;-79
2022/09/13 05:56:30;;;;;;;;;;;23.30;95.80;;;;;;5017767;28;20020;-77
2022/09/13 05:58:57;;;;;;;;;;;23.20;95.50;;;;;;5016312;28;20020;-78
2022/09/13 06:01:25;;;;;;;;;;;23.20;95.30;;;;;;5016620;28;19925;-78
2022/09/13 06:03:52;;;;;;;;;;;23.20;95.10;;;;;;5016267;28;19933;-78
2022/09/13 06:06:19;;;;;;;;;;;23.20;94.90;;;;;;5016010;28;19926;-78
2022/09/13 06:08:46;;;;;;;;;;;23.20;94.60;;;;;;5016439;28;19948;-78
2022/09/13 06:11:14;;;;;;;;;;;23.20;94.40;;;;;;5015852;28;20416;-78
2022/09/13 06:13:42;;;;;;;;;;;23.20;94.30;;;;;;5016306;28;19926;-78
2022/09/13 06:16:10;;;;;;;;;;;23.20;94.10;;;;;;5016050;28;20404;-78
2022/09/13 06:18:36;;;;;;;;;;;23.20;93.90;;;;;;5015752;28;20317;-78
2022/09/13 06:21:04;;;;;;;;;;;23.20;93.60;;;;;;5015655;28;20454;-78
2022/09/13 06:23:31;;;;;;;;;;;23.20;93.40;;;;;;5014930;28;20288;-78
2022/09/13 06:26:01;;;;;;;;;;;23.20;93.20;;;;;;5015925;28;20024;-78
2022/09/13 06:28:28;;;;;;;;;;;23.20;93.10;;;;;;5015747;28;19925;-78
2022/09/13 06:31:01;;;;;;;;;;;23.20;92.90;;;;;;5016471;28;19932;-77
2022/09/13 06:33:27;;;;;;;;;;;23.20;92.70;;;;;;5015685;28;19925;-77
2022/09/13 06:35:54;;;;;;;;;;;23.20;92.50;;;;;;5015543;28;19925;-77
2022/09/13 06:38:21;;;;;;;;;;;23.20;92.30;;;;;;5015562;28;19925;-77
2022/09/13 06:40:47;;;;;;;;;;;23.20;92.10;;;;;;5015632;28;20308;-78
2022/09/13 06:43:14;;;;;;;;;;;23.20;91.90;;;;;;5015446;28;20266;-78
2022/09/13 06:45:41;;;;;;;;;;;23.20;91.90;;;;;;5015453;28;20047;-77
2022/09/13 06:48:09;;;;;;;;;;;23.10;92.20;;;;;;5015315;28;19925;-78
2022/09/13 06:50:35;;;;;;;;;;;23.20;91.60;;;;;;5015311;28;19925;-77
2022/09/13 06:53:02;;;;;;;;;;;23.10;91.40;;;;;;5015399;28;20016;-78
2022/09/13 06:55:29;;;;;;;;;;;23.20;91.30;;;;;;5015653;28;19971;-78
2022/09/13 06:57:56;;;;;;;;;;;23.20;91.10;;;;;;5015243;28;20020;-78
2022/09/13 07:00:22;;;;;;;;;;;23.20;91.00;;;;;;5015350;28;19967;-78
2022/09/13 07:02:50;;;;;;;;;;;23.20;90.90;;;;;;5015233;28;20020;-77
2022/09/13 07:05:19;;;;;;;;;;;23.20;90.70;;;;;;5015003;28;19952;-78
2022/09/13 07:07:46;;;;;;;;;;;23.20;90.60;;;;;;5015116;28;19976;-78
2022/09/13 07:10:12;;;;;;;;;;;23.20;90.40;;;;;;5015195;28;19926;-78
2022/09/13 07:12:40;;;;;;;;;;;23.20;90.30;;;;;;5015059;28;19925;-78
2022/09/13 07:15:07;;;;;;;;;;;23.20;90.20;;;;;;5015057;28;20380;-78
2022/09/13 07:17:33;;;;;;;;;;;23.20;90.10;;;;;;5014587;28;20016;-78
2022/09/13 07:20:00;;;;;;;;;;;23.20;90.00;;;;;;5015242;28;20024;-78
2022/09/13 07:22:28;;;;;;;;;;;23.20;89.70;;;;;;5014557;28;19925;-78
2022/09/13 07:24:56;;;;;;;;;;;23.20;89.40;;;;;;5014514;28;20376;-77
2022/09/13 07:27:22;;;;;;;;;;;23.20;89.10;;;;;;5014805;28;20012;-78
2022/09/13 07:29:49;;;;;;;;;;;23.20;88.70;;;;;;5014725;28;19926;-78
2022/09/13 07:32:15;;;;;;;;;;;23.20;88.60;;;;;;5014958;28;20036;-78
2022/09/13 07:34:42;;;;;;;;;;;23.20;88.60;;;;;;5013983;28;20012;-78
2022/09/13 07:37:09;;;;;;;;;;;23.20;88.60;;;;;;5014585;28;20025;-78
2022/09/13 07:39:37;;;;;;;;;;;23.20;88.20;;;;;;5014553;28;20012;-78
2022/09/13 07:42:03;;;;;;;;;;;23.20;87.90;;;;;;5014650;28;19925;-78
2022/09/13 07:44:30;;;;;;;;;;;23.20;87.60;;;;;;5014552;28;19925;-78
2022/09/13 07:46:57;;;;;;;;;;;23.20;87.40;;;;;;5014717;28;20012;-78
2022/09/13 07:49:23;;;;;;;;;;;23.20;87.10;;;;;;5014628;28;19925;-78
2022/09/13 07:51:51;;;;;;;;;;;23.20;87.00;;;;;;5014511;28;20020;-78
2022/09/13 07:54:19;;;;;;;;;;;23.20;86.70;;;;;;5014589;28;19976;-78
2022/09/13 07:56:48;;;;;;;;;;;23.20;86.50;;;;;;5014357;28;19926;-78
2022/09/13 07:59:16;;;;;;;;;;;23.20;86.30;;;;;;5014176;28;19932;-78
2022/09/13 08:01:43;;;;;;;;;;;23.20;86.10;;;;;;5014324;28;20389;-77
2022/09/13 08:04:11;;;;;;;;;;;23.20;85.80;;;;;;5014406;28;20016;-78
2022/09/13 08:06:38;;;;;;;;;;;23.20;85.70;;;;;;5014378;28;19932;-78
2022/09/13 08:09:05;;;;;;;;;;;23.20;85.50;;;;;;5014459;28;19929;-78
2022/09/13 08:11:33;;;;;;;;;;;23.20;85.30;;;;;;5014063;28;20411;-78
2022/09/13 08:14:01;;;;;;;;;;;23.20;85.00;;;;;;5014294;28;19932;-78
2022/09/13 08:16:28;;;;;;;;;;;23.20;84.90;;;;;;5014541;28;19925;-78
2022/09/13 08:18:56;;;;;;;;;;;23.20;84.70;;;;;;5014093;28;19929;-78
2022/09/13 08:21:23;;;;;;;;;;;23.20;84.50;;;;;;5014010;28;19926;-78
2022/09/13 08:23:50;;;;;;;;;;;23.20;84.30;;;;;;5014402;28;19925;-78
2022/09/13 08:26:17;;;;;;;;;;;23.20;84.10;;;;;;5013973;28;19926;-78
2022/09/13 08:28:43;;;;;;;;;;;23.20;83.90;;;;;;5014083;28;19926;-78
2022/09/13 08:31:12;;;;;;;;;;;23.20;83.70;;;;;;5014241;28;20012;-78
2022/09/13 08:33:39;;;;;;;;;;;23.20;83.50;;;;;;5013825;28;20297;-77
2022/09/13 08:36:06;;;;;;;;;;;23.20;83.20;;;;;;5014072;28;19925;-78
2022/09/13 08:38:32;;;;;;;;;;;23.20;82.90;;;;;;5013689;28;19992;-78
2022/09/13 08:41:01;;;;;;;;;;;23.20;82.90;;;;;;5014359;28;19931;-78
2022/09/13 08:43:35;;;;;;;;;;;23.20;82.90;;;;;;5014406;28;19925;-77
2022/09/13 08:46:08;;;;;;;;;;;23.20;82.90;;;;;;5013848;28;19925;-77
2022/09/13 08:48:39;;;;;;;;;;;23.20;82.90;;;;;;5017385;28;19935;-78
2022/09/13 08:51:07;;;;;;;;;;;23.20;82.90;;;;;;5017244;28;20411;-78
2022/09/13 08:53:38;;;;;;;;;;;23.20;82.60;;;;;;5017497;28;20020;-77
2022/09/13 08:56:08;;;;;;;;;;;23.20;82.40;;;;;;5017484;28;19930;-78
2022/09/13 08:58:48;;;;;;;;;;;23.20;82.30;;;;;;5016970;28;20385;-78
2022/09/13 09:01:20;;;;;;;;;;;23.20;82.10;;;;;;5017215;28;19932;-78
2022/09/13 09:03:53;;;;;;;;;;;23.30;82.00;;;;;;5017391;28;19933;-78
2022/09/13 09:06:21;;;;;;;;;;;23.30;81.90;;;;;;5017249;28;19925;-77
2022/09/13 09:08:49;;;;;;;;;;;23.30;81.80;;;;;;5017161;28;19925;-77
2022/09/13 09:11:21;;;;;;;;;;;23.30;81.70;;;;;;5017174;28;20016;-78
2022/09/13 09:13:51;;;;;;;;;;;23.30;81.50;;;;;;5017168;28;19925;-77
2022/09/13 09:16:24;;;;;;;;;;;23.20;81.40;;;;;;5017049;28;19936;-77
2022/09/13 09:18:54;;;;;;;;;;;23.30;81.30;;;;;;5016659;28;19932;-77
2022/09/13 09:21:21;;;;;;;;;;;23.30;81.20;;;;;;5016824;28;19925;-78
2022/09/13 09:23:50;;;;;;;;;;;23.30;81.10;;;;;;5016925;28;19925;-78
2022/09/13 09:26:17;;;;;;;;;;;23.30;81.00;;;;;;5016798;28;19972;-78
2022/09/13 09:28:46;;;;;;;;;;;23.30;80.90;;;;;;5016860;28;19926;-78
2022/09/13 09:31:15;;;;;;;;;;;23.30;80.90;;;;;;5016508;28;20395;-78
2022/09/13 09:33:57;;;;;;;;;;;23.30;80.80;;;;;;5016802;28;20304;-78
2022/09/13 09:36:28;;;;;;;;;;;23.30;80.70;;;;;;5016412;28;19925;-78
2022/09/13 09:38:56;;;;;;;;;;;23.30;80.60;;;;;;5016759;28;20044;-78
2022/09/13 09:41:26;;;;;;;;;;;23.30;80.60;;;;;;5016250;28;20400;-78
2022/09/13 09:43:56;;;;;;;;;;;23.30;81.20;;;;;;5016623;28;19925;-78
2022/09/13 09:46:25;;;;;;;;;;;23.30;80.50;;;;;;5016487;28;19926;-78
2022/09/13 09:48:54;;;;;;;;;;;23.30;80.40;;;;;;5016309;28;19926;-78
2022/09/13 09:51:24;;;;;;;;;;;23.30;80.30;;;;;;5016432;28;19932;-78
2022/09/13 09:53:54;;;;;;;;;;;23.30;80.30;;;;;;5016505;28;20377;-78
2022/09/13 09:56:23;;;;;;;;;;;23.30;80.20;;;;;;5016323;28;19932;-78
2022/09/13 09:58:50;;;;;;;;;;;23.30;80.20;;;;;;5014943;28;19932;-78
2022/09/13 10:01:20;;;;;;;;;;;23.30;80.10;;;;;;5015987;28;19984;-78
2022/09/13 10:03:51;;;;;;;;;;;23.30;80.10;;;;;;5015835;28;20393;-78
2022/09/13 10:06:19;;;;;;;;;;;23.30;80.00;;;;;;5016224;28;19932;-78
2022/09/13 10:08:54;;;;;;;;;;;23.30;80.00;;;;;;5016035;28;19935;-77
2022/09/13 10:11:21;;;;;;;;;;;23.30;79.90;;;;;;5016046;28;19968;-77
2022/09/13 10:13:58;;;;;;;;;;;23.30;79.90;;;;;;5015838;28;20304;-77
2022/09/13 10:16:26;;;;;;;;;;;23.30;79.90;;;;;;5015675;28;19933;-77
2022/09/13 10:18:53;;;;;;;;;;;23.30;79.80;;;;;;5015953;28;20020;-78
2022/09/13 10:21:23;;;;;;;;;;;23.30;79.80;;;;;;5016004;28;19932;-78
2022/09/13 10:23:52;;;;;;;;;;;23.30;79.70;;;;;;5015539;28;19926;-78
2022/09/13 10:26:20;;;;;;;;;;;23.30;79.70;;;;;;5015901;28;19968;-77
2022/09/13 10:28:51;;;;;;;;;;;23.30;79.70;;;;;;5015635;28;19926;-77
2022/09/13 10:31:18;;;;;;;;;;;23.30;79.60;;;;;;5015791;28;19930;-77
2022/09/13 10:33:52;;;;;;;;;;;23.30;79.60;;;;;;5015843;28;19932;-77
2022/09/13 10:36:20;;;;;;;;;;;23.30;79.60;;;;;;5015864;28;19925;-78
2022/09/13 10:38:50;;;;;;;;;;;23.30;79.50;;;;;;5015507;28;19926;-78
2022/09/13 10:41:23;;;;;;;;;;;23.30;79.60;;;;;;5015666;28;19926;-78
2022/09/13 10:43:56;;;;;;;;;;;23.40;79.60;;;;;;5015804;28;19932;-78
2022/09/13 10:46:23;;;;;;;;;;;23.30;79.40;;;;;;5015553;28;19925;-78
2022/09/13 10:48:54;;;;;;;;;;;23.30;79.40;;;;;;5015407;28;19925;-78
2022/09/13 10:51:30;;;;;;;;;;;23.40;79.50;;;;;;5015464;28;19976;-78
2022/09/13 10:54:09;;;;;;;;;;;23.40;79.50;;;;;;5015342;28;19931;-78
2022/09/13 10:56:37;;;;;;;;;;;23.40;79.40;;;;;;5015292;28;19979;-78
2022/09/13 10:59:14;;;;;;;;;;;23.40;79.40;;;;;;5017665;28;19925;-80
2022/09/13 11:01:44;;;;;;;;;;;23.30;79.20;;;;;;5018244;28;19933;-80
2022/09/13 11:04:30;;;;;;;;;;;23.40;79.30;;;;;;5018695;28;19926;-80
2022/09/13 11:07:03;;;;;;;;;;;23.40;79.30;;;;;;5018732;28;20023;-80
2022/09/13 11:09:33;;;;;;;;;;;23.40;79.20;;;;;;5017991;28;19932;-80
2022/09/13 11:12:06;;;;;;;;;;;23.40;79.20;;;;;;5018007;28;20381;-80
2022/09/13 11:14:40;;;;;;;;;;;23.40;79.10;;;;;;5018243;28;19926;-80
2022/09/13 11:17:12;;;;;;;;;;;23.40;79.10;;;;;;5018055;28;20389;-80
2022/09/13 11:19:57;;;;;;;;;;;23.40;79.10;;;;;;5018206;28;19948;-80
2022/09/13 11:22:33;;;;;;;;;;;23.40;79.00;;;;;;5017673;28;20400;-80
2022/09/13 11:25:09;;;;;;;;;;;23.40;78.90;;;;;;5018187;28;20452;-80
2022/09/13 11:27:44;;;;;;;;;;;23.40;78.90;;;;;;5017900;28;19936;-80
2022/09/13 11:30:14;;;;;;;;;;;23.40;78.80;;;;;;5018384;28;19965;-80
2022/09/13 11:32:49;;;;;;;;;;;23.40;78.80;;;;;;5018528;28;20292;-80
2022/09/13 11:35:22;;;;;;;;;;;23.40;78.70;;;;;;5017840;28;19937;-80
2022/09/13 11:37:53;;;;;;;;;;;23.40;78.60;;;;;;5028181;28;19933;-80
2022/09/13 11:40:28;;;;;;;;;;;23.40;78.60;;;;;;5029123;28;19926;-80
2022/09/13 11:43:03;;;;;;;;;;;23.40;78.50;;;;;;5030678;28;19933;-80
2022/09/13 11:45:32;;;;;;;;;;;23.40;78.40;;;;;;5034220;28;19965;-80
2022/09/13 11:48:07;;;;;;;;;;;23.40;78.30;;;;;;5022265;28;20016;-80
2022/09/13 11:50:36;;;;;;;;;;;23.40;78.20;;;;;;5019861;28;19932;-80
2022/09/13 11:53:09;;;;;;;;;;;23.40;78.20;;;;;;5019862;28;19932;-80
2022/09/13 11:55:39;;;;;;;;;;;23.40;78.20;;;;;;5019202;28;19972;-80
2022/09/13 11:58:11;;;;;;;;;;;23.40;78.10;;;;;;5019000;28;19989;-80
2022/09/13 12:00:41;;;;;;;;;;;23.40;78.00;;;;;;5019199;28;20021;-80
2022/09/13 12:03:15;;;;;;;;;;;23.40;78.00;;;;;;5018590;28;19932;-80
2022/09/13 12:05:44;;;;;;;;;;;23.40;77.90;;;;;;5018837;28;19932;-80
2022/09/13 12:08:13;;;;;;;;;;;23.40;78.60;;;;;;5019550;28;19925;-80
2022/09/13 12:10:43;;;;;;;;;;;23.40;77.80;;;;;;5018355;28;19925;-80
2022/09/13 12:13:14;;;;;;;;;;;23.40;77.80;;;;;;5018263;28;20411;-80
2022/09/13 12:15:42;;;;;;;;;;;23.40;78.50;;;;;;5018962;28;19925;-80
2022/09/13 12:18:13;;;;;;;;;;;23.40;77.70;;;;;;5018420;28;19926;-80
2022/09/13 12:20:41;;;;;;;;;;;23.40;77.70;;;;;;5019177;28;19934;-80
2022/09/13 12:23:12;;;;;;;;;;;23.50;77.70;;;;;;5021643;28;20385;-80
2022/09/13 12:25:41;;;;;;;;;;;23.50;77.60;;;;;;5022343;28;19926;-80
2022/09/13 12:28:12;;;;;;;;;;;23.40;77.50;;;;;;5021701;28;20392;-80
2022/09/13 12:30:42;;;;;;;;;;;23.50;77.60;;;;;;5021941;28;20300;-80
2022/09/13 12:33:12;;;;;;;;;;;23.50;77.50;;;;;;5021970;28;19925;-80
2022/09/13 12:35:45;;;;;;;;;;;23.40;77.30;;;;;;5022204;28;19932;-80
2022/09/13 12:38:25;;;;;;;;;;;23.50;77.50;;;;;;5021818;28;19932;-80
2022/09/13 12:41:11;;;;;;;;;;;23.50;77.50;;;;;;5022378;28;20019;-80
2022/09/13 12:43:47;;;;;;;;;;;23.50;77.50;;;;;;5021937;28;20019;-80
2022/09/13 12:46:32;;;;;;;;;;;23.50;77.50;;;;;;5021750;28;19925;-80
2022/09/13 12:49:08;;;;;;;;;;;23.50;77.50;;;;;;5021597;28;20044;-80
2022/09/13 12:51:42;;;;;;;;;;;23.50;77.50;;;;;;5021193;28;19932;-80
2022/09/13 12:54:32;;;;;;;;;;;23.50;77.50;;;;;;5021241;28;20016;-80
2022/09/13 12:57:04;;;;;;;;;;;23.50;77.50;;;;;;5020732;28;19926;-80
2022/09/13 12:59:40;;;;;;;;;;;23.50;77.50;;;;;;5020992;28;19931;-80
2022/09/13 13:02:24;;;;;;;;;;;23.50;77.50;;;;;;5020994;28;19927;-80
2022/09/13 13:04:52;;;;;;;;;;;23.50;77.50;;;;;;5020765;28;19952;-80
2022/09/13 13:07:21;;;;;;;;;;;23.50;77.50;;;;;;5020946;28;19932;-80
2022/09/13 13:09:49;;;;;;;;;;;23.50;77.50;;;;;;5020529;28;19937;-80
2022/09/13 13:12:26;;;;;;;;;;;23.50;77.50;;;;;;5021528;28;19926;-80
2022/09/13 13:14:53;;;;;;;;;;;23.50;77.50;;;;;;5020808;28;19926;-80
2022/09/13 13:17:40;;;;;;;;;;;23.50;77.60;;;;;;5020550;28;19925;-80
2022/09/13 13:20:25;;;;;;;;;;;23.50;77.60;;;;;;5015719;28;20282;-80
2022/09/13 13:23:03;;;;;;;;;;;23.50;77.80;;;;;;5020545;28;19926;-80
2022/09/13 13:25:36;;;;;;;;;;;23.50;77.80;;;;;;5020400;28;20358;-80
2022/09/13 13:28:03;;;;;;;;;;;23.50;77.90;;;;;;5020626;28;19925;-80
2022/09/13 13:30:55;;;;;;;;;;;23.60;78.00;;;;;;5020849;28;19931;-80
2022/09/13 13:33:24;;;;;;;;;;;23.60;78.10;;;;;;5020627;28;19934;-80
2022/09/13 13:35:50;;;;;;;;;;;23.60;78.10;;;;;;5020009;28;20377;-80
2022/09/13 13:38:33;;;;;;;;;;;23.60;78.10;;;;;;5021025;28;19936;-80
2022/09/13 13:41:08;;;;;;;;;;;23.50;78.00;;;;;;5019726;28;19933;-80
2022/09/13 13:43:35;;;;;;;;;;;23.50;78.00;;;;;;5020510;28;19933;-80
2022/09/13 13:46:21;;;;;;;;;;;23.60;78.20;;;;;;5020204;28;20016;-80
2022/09/13 13:48:48;;;;;;;;;;;23.60;78.50;;;;;;5019469;28;19929;-80
2022/09/13 13:51:15;;;;;;;;;;;23.60;78.50;;;;;;5020273;28;19925;-80
2022/09/13 13:53:46;;;;;;;;;;;23.60;78.60;;;;;;5020192;28;19926;-80
2022/09/13 13:56:18;;;;;;;;;;;23.60;78.70;;;;;;5020178;28;19993;-80
2022/09/13 13:58:46;;;;;;;;;;;23.60;78.70;;;;;;5019655;28;19932;-80
2022/09/13 14:01:16;;;;;;;;;;;23.60;78.80;;;;;;5020402;28;20021;-80
2022/09/13 14:03:51;;;;;;;;;;;23.60;78.90;;;;;;5019706;28;19925;-80
2022/09/13 14:06:22;;;;;;;;;;;23.60;78.90;;;;;;5020065;28;19930;-80
2022/09/13 14:09:01;;;;;;;;;;;23.60;79.00;;;;;;5020101;28;19935;-81
2022/09/13 14:11:37;;;;;;;;;;;23.60;79.00;;;;;;5021758;28;20444;-80
2022/09/13 14:14:13;;;;;;;;;;;23.60;79.10;;;;;;5022082;28;19925;-81
2022/09/13 14:16:47;;;;;;;;;;;23.60;79.30;;;;;;5022509;28;19926;-80
2022/09/13 14:19:22;;;;;;;;;;;23.60;79.50;;;;;;5022291;28;20292;-80
2022/09/13 14:22:04;;;;;;;;;;;23.60;79.50;;;;;;5022485;28;19936;-81
2022/09/13 14:24:37;;;;;;;;;;;23.60;79.70;;;;;;5021678;28;19932;-81
2022/09/13 14:27:04;;;;;;;;;;;23.70;79.90;;;;;;5021550;28;19932;-81
2022/09/13 14:29:31;;;;;;;;;;;23.70;80.80;;;;;;5021428;28;19948;-80
2022/09/13 14:32:03;;;;;;;;;;;23.60;80.10;;;;;;5018365;28;19949;-79
2022/09/13 14:34:31;;;;;;;;;;;23.70;80.40;;;;;;5020156;28;19933;-80
2022/09/13 14:36:59;;;;;;;;;;;23.60;80.50;;;;;;5019496;28;19925;-80
2022/09/13 14:39:26;;;;;;;;;;;23.70;80.80;;;;;;5018738;28;19953;-80
2022/09/13 14:42:00;;;;;;;;;;;23.70;80.90;;;;;;5020897;28;19968;-80
2022/09/13 14:44:27;;;;;;;;;;;23.70;81.20;;;;;;5019256;28;19976;-81
2022/09/13 14:46:56;;;;;;;;;;;23.70;81.40;;;;;;5017981;28;20304;-80
2022/09/13 14:49:24;;;;;;;;;;;23.70;81.70;;;;;;5018565;28;19926;-80
2022/09/13 14:51:52;;;;;;;;;;;23.70;81.90;;;;;;5018612;28;19932;-80
2022/09/13 14:54:20;;;;;;;;;;;23.70;82.10;;;;;;5018522;28;20028;-80
2022/09/13 14:56:49;;;;;;;;;;;23.70;82.40;;;;;;5018289;28;19926;-80
2022/09/13 14:59:26;;;;;;;;;;;23.70;82.70;;;;;;5018256;28;20399;-81
2022/09/13 15:01:52;;;;;;;;;;;23.70;83.00;;;;;;5018729;28;19963;-80
2022/09/13 15:04:20;;;;;;;;;;;23.70;83.40;;;;;;5018164;28;20024;-80
2022/09/13 15:06:47;;;;;;;;;;;23.70;83.50;;;;;;5018807;28;19933;-80
2022/09/13 15:09:17;;;;;;;;;;;23.70;83.50;;;;;;5017925;28;19961;-80
2022/09/13 15:11:55;;;;;;;;;;;23.70;83.70;;;;;;5017807;28;19972;-80
2022/09/13 15:14:25;;;;;;;;;;;23.70;84.10;;;;;;5018149;28;19925;-81
2022/09/13 15:16:53;;;;;;;;;;;23.70;84.50;;;;;;5018099;28;19957;-80
2022/09/13 15:19:31;;;;;;;;;;;23.70;84.80;;;;;;5017322;28;19979;-80
2022/09/13 15:22:05;;;;;;;;;;;23.70;85.10;;;;;;5015842;28;20008;-81
2022/09/13 15:24:33;;;;;;;;;;;23.70;85.50;;;;;;5015802;28;20025;-80
2022/09/13 15:27:05;;;;;;;;;;;23.70;85.80;;;;;;5015842;28;20016;-81
2022/09/13 15:29:35;;;;;;;;;;;23.70;86.10;;;;;;5016381;28;20019;-81
2022/09/13 15:32:02;;;;;;;;;;;23.70;86.40;;;;;;5015845;28;19925;-80
2022/09/13 15:34:29;;;;;;;;;;;23.70;86.70;;;;;;5015839;28;20035;-80
2022/09/13 15:37:07;;;;;;;;;;;23.70;86.90;;;;;;5016049;28;19972;-80
2022/09/13 15:39:42;;;;;;;;;;;23.70;87.30;;;;;;5015407;28;20288;-80
2022/09/13 15:42:09;;;;;;;;;;;23.70;87.60;;;;;;5015518;28;19932;-80
2022/09/13 15:44:37;;;;;;;;;;;23.70;87.90;;;;;;5015508;28;19930;-80
2022/09/13 15:47:08;;;;;;;;;;;23.70;88.20;;;;;;5015424;28;20008;-80
2022/09/13 15:49:34;;;;;;;;;;;23.70;88.50;;;;;;5015739;28;19969;-80
2022/09/13 15:52:02;;;;;;;;;;;23.70;88.80;;;;;;5016510;28;20016;-80
2022/09/13 15:54:31;;;;;;;;;;;23.70;89.10;;;;;;5016112;28;19925;-80
2022/09/13 15:56:58;;;;;;;;;;;23.70;89.20;;;;;;5017523;28;19925;-80
2022/09/13 15:59:25;;;;;;;;;;;23.70;89.30;;;;;;5018887;28;19971;-80
2022/09/13 16:01:54;;;;;;;;;;;23.70;89.80;;;;;;5019231;28;19925;-80
2022/09/13 16:04:21;;;;;;;;;;;23.70;90.00;;;;;;5018482;28;20399;-80
2022/09/13 16:06:48;;;;;;;;;;;23.70;90.10;;;;;;5019425;28;19948;-80
2022/09/13 16:09:17;;;;;;;;;;;23.70;90.30;;;;;;5019817;28;19947;-80
2022/09/13 16:11:44;;;;;;;;;;;23.70;90.40;;;;;;5019585;28;19925;-80
2022/09/13 16:14:11;;;;;;;;;;;23.70;90.50;;;;;;5020006;28;19926;-80
2022/09/13 16:16:38;;;;;;;;;;;23.70;90.70;;;;;;5019840;28;19925;-80
2022/09/13 16:19:06;;;;;;;;;;;23.70;90.80;;;;;;5019602;28;20032;-80
2022/09/13 16:21:33;;;;;;;;;;;23.70;90.90;;;;;;5019797;28;20013;-80
2022/09/13 16:23:59;;;;;;;;;;;23.70;91.10;;;;;;5020084;28;19967;-80
2022/09/13 16:26:27;;;;;;;;;;;23.70;91.20;;;;;;5019456;28;19925;-80
2022/09/13 16:28:54;;;;;;;;;;;23.70;91.30;;;;;;5018941;28;19926;-81
2022/09/13 16:31:20;;;;;;;;;;;23.80;91.50;;;;;;5019871;28;19929;-79
2022/09/13 16:33:47;;;;;;;;;;;23.80;91.60;;;;;;5022549;28;20019;-81
2022/09/13 16:36:16;;;;;;;;;;;23.70;91.70;;;;;;5024648;28;19925;-81
2022/09/13 16:38:44;;;;;;;;;;;23.70;91.80;;;;;;5023852;28;19925;-81
2022/09/13 16:41:11;;;;;;;;;;;23.70;91.90;;;;;;5024992;28;19964;-81
2022/09/13 16:43:38;;;;;;;;;;;23.80;92.20;;;;;;5023693;28;19925;-81
2022/09/13 16:46:06;;;;;;;;;;;23.80;92.20;;;;;;5025044;28;19925;-81
2022/09/13 16:48:34;;;;;;;;;;;23.70;92.10;;;;;;5024211;28;20344;-80
2022/09/13 16:51:02;;;;;;;;;;;23.80;92.20;;;;;;5024809;28;19930;-80
2022/09/13 16:53:32;;;;;;;;;;;23.70;92.30;;;;;;5022481;28;19925;-80
2022/09/13 16:56:04;;;;;;;;;;;23.80;92.50;;;;;;5020503;28;19948;-81
2022/09/13 16:58:31;;;;;;;;;;;23.70;92.70;;;;;;5020087;28;19975;-81
2022/09/13 17:00:57;;;;;;;;;;;23.70;92.90;;;;;;5020210;28;20020;-81
2022/09/13 17:03:24;;;;;;;;;;;23.80;93.10;;;;;;5020060;28;19932;-80
2022/09/13 17:05:56;;;;;;;;;;;23.70;93.20;;;;;;5019781;28;20012;-80
2022/09/13 17:08:23;;;;;;;;;;;23.80;93.40;;;;;;5019042;28;19925;-80
2022/09/13 17:10:51;;;;;;;;;;;23.80;93.60;;;;;;5018596;28;19929;-79
2022/09/13 17:13:18;;;;;;;;;;;23.80;93.80;;;;;;5018956;28;19929;-79
2022/09/13 17:15:45;;;;;;;;;;;23.80;94.00;;;;;;5018504;28;19926;-80
2022/09/13 17:18:11;;;;;;;;;;;23.80;94.10;;;;;;5018613;28;19933;-80
2022/09/13 17:20:44;;;;;;;;;;;23.80;94.30;;;;;;5019021;28;20030;-80
2022/09/13 17:23:10;;;;;;;;;;;23.80;94.60;;;;;;5019923;28;19935;-80
2022/09/13 17:25:37;;;;;;;;;;;23.80;94.70;;;;;;5019336;28;19925;-80
2022/09/13 17:28:05;;;;;;;;;;;23.80;94.80;;;;;;5019471;28;20361;-79
2022/09/13 17:30:33;;;;;;;;;;;23.80;95.10;;;;;;5018759;28;19925;-81
2022/09/13 17:32:59;;;;;;;;;;;23.80;95.30;;;;;;5019258;28;19932;-81
2022/09/13 17:35:28;;;;;;;;;;;23.80;95.50;;;;;;5018895;28;20382;-81
2022/09/13 17:37:55;;;;;;;;;;;23.80;95.70;;;;;;5018746;28;19952;-81
2022/09/13 17:40:21;;;;;;;;;;;23.80;95.90;;;;;;5019309;28;20012;-85
2022/09/13 17:42:49;;;;;;;;;;;23.80;96.10;;;;;;5019193;28;20400;-84
2022/09/13 17:45:17;;;;;;;;;;;23.80;96.30;;;;;;5020074;28;19931;-85
2022/09/13 17:47:43;;;;;;;;;;;23.80;96.50;;;;;;5019547;28;20023;-84
2022/09/13 17:50:10;;;;;;;;;;;23.80;96.70;;;;;;5019907;28;20032;-85
2022/09/13 17:52:37;;;;;;;;;;;23.80;97.00;;;;;;5019103;28;20020;-85
2022/09/13 17:55:04;;;;;;;;;;;23.80;97.10;;;;;;5018850;28;20032;-85
2022/09/13 17:57:30;;;;;;;;;;;23.80;97.10;;;;;;5019156;28;19929;-85
2022/09/13 17:59:57;;;;;;;;;;;23.80;97.40;;;;;;5019577;28;20012;-85
2022/09/13 18:02:26;;;;;;;;;;;23.80;97.60;;;;;;5019523;28;19968;-85
2022/09/13 18:04:53;;;;;;;;;;;23.80;97.70;;;;;;5019469;28;19979;-85
2022/09/13 18:07:20;;;;;;;;;;;23.80;97.90;;;;;;5019575;28;19925;-84
2022/09/13 18:09:46;;;;;;;;;;;23.80;98.10;;;;;;5019417;28;20029;-85
2022/09/13 18:12:13;;;;;;;;;;;23.80;98.20;;;;;;5020974;28;19932;-85
2022/09/13 18:14:40;;;;;;;;;;;23.80;98.40;;;;;;5019888;28;19930;-85
2022/09/13 18:17:11;;;;;;;;;;;23.80;98.60;;;;;;5019245;28;19969;-85
2022/09/13 18:19:39;;;;;;;;;;;23.80;98.70;;;;;;5018930;28;19933;-85
2022/09/13 18:22:06;;;;;;;;;;;23.80;98.90;;;;;;5019700;28;20004;-84
2022/09/13 18:24:33;;;;;;;;;;;23.80;99.00;;;;;;5019345;28;19975;-81